createdAt,value
2023-05-15T00:00:49.108Z,97206.97
2023-05-15T00:03:17.577Z,97201.59
2023-05-15T00:05:45.339Z,97199.31
2023-05-15T00:08:12.904Z,97204.06
2023-05-15T00:10:44.911Z,97207.56
2023-05-15T00:13:18.997Z,97213.94
2023-05-15T00:15:46.529Z,97204.22
2023-05-15T00:18:14.169Z,97208.97
2023-05-15T00:20:41.672Z,97207.34
2023-05-15T00:23:10.234Z,97211.66
2023-05-15T00:25:37.761Z,97204.66
2023-05-15T00:28:05.344Z,97198.44
2023-05-15T00:30:32.862Z,97191.00
2023-05-15T00:33:00.592Z,97200.72
2023-05-15T00:35:28.128Z,97186.09
2023-05-15T00:37:55.633Z,97183.19
2023-05-15T00:40:26.044Z,97185.03
2023-05-15T00:42:54.359Z,97180.06
2023-05-15T00:45:23.438Z,97185.69
2023-05-15T00:47:51.864Z,97187.56
2023-05-15T00:50:20.901Z,97190.22
2023-05-15T00:52:49.154Z,97190.03
2023-05-15T00:55:16.851Z,97194.16
2023-05-15T00:57:45.932Z,97188.78
2023-05-15T01:00:16.796Z,97187.94
2023-05-15T01:02:44.687Z,97184.06
2023-05-15T01:05:12.282Z,97186.91
2023-05-15T01:07:52.503Z,97192.88
2023-05-15T01:10:21.206Z,97191.00
2023-05-15T01:12:52.994Z,97201.31
2023-05-15T01:15:20.705Z,97205.25
2023-05-15T01:17:49.912Z,97203.81
2023-05-15T01:20:18.943Z,97207.56
2023-05-15T01:23:15.634Z,97207.34
2023-05-15T01:26:19.935Z,97202.59
2023-05-15T01:29:30.045Z,97209.19
2023-05-15T01:32:04.052Z,97202.38
2023-05-15T01:34:48.360Z,97202.56
2023-05-15T01:37:22.227Z,97198.25
2023-05-15T01:39:54.353Z,97194.50
2023-05-15T01:42:27.442Z,97194.31
2023-05-15T01:44:57.527Z,97201.75
2023-05-15T01:47:41.905Z,97200.06
2023-05-15T01:50:15.298Z,97206.06
2023-05-15T01:52:50.604Z,97202.34
2023-05-15T01:55:20.620Z,97202.72
2023-05-15T01:57:50.356Z,97196.13
2023-05-15T02:00:18.984Z,97196.75
2023-05-15T02:02:47.695Z,97199.19
2023-05-15T02:05:16.201Z,97192.38
2023-05-15T02:07:45.195Z,97194.22
2023-05-15T02:10:13.731Z,97194.22
2023-05-15T02:12:42.347Z,97186.16
2023-05-15T02:15:11.372Z,97195.22
2023-05-15T02:17:39.465Z,97190.66
2023-05-15T02:20:08.343Z,97198.50
2023-05-15T02:22:38.720Z,97193.16
2023-05-15T02:25:06.596Z,97196.03
2023-05-15T02:27:59.339Z,97194.56
2023-05-15T02:30:46.110Z,97196.78
2023-05-15T02:33:50.182Z,97194.72
2023-05-15T02:36:23.443Z,97196.16
2023-05-15T02:38:53.688Z,97195.97
2023-05-15T02:41:23.018Z,97199.47
2023-05-15T02:43:52.273Z,97200.91
2023-05-15T02:46:21.240Z,97194.16
2023-05-15T02:48:50.558Z,97192.09
2023-05-15T02:51:18.816Z,97183.88
2023-05-15T02:53:46.459Z,97184.91
2023-05-15T02:56:13.948Z,97193.78
2023-05-15T02:58:42.085Z,97190.53
2023-05-15T03:01:09.634Z,97200.44
2023-05-15T03:03:37.243Z,97201.84
2023-05-15T03:06:04.930Z,97197.09
2023-05-15T03:08:32.467Z,97198.31
2023-05-15T03:10:59.959Z,97194.16
2023-05-15T03:13:27.511Z,97190.03
2023-05-15T03:15:55.008Z,97205.31
2023-05-15T03:18:22.874Z,97199.78
2023-05-15T03:20:53.283Z,97191.97
2023-05-15T03:23:20.811Z,97192.38
2023-05-15T03:25:48.452Z,97201.00
2023-05-15T03:28:15.988Z,97194.84
2023-05-15T03:30:46.435Z,97202.22
2023-05-15T03:33:13.940Z,97184.06
2023-05-15T03:35:41.438Z,97191.53
2023-05-15T03:38:09.009Z,97192.34
2023-05-15T03:40:39.612Z,97192.72
2023-05-15T03:43:07.184Z,97195.41
2023-05-15T03:45:35.223Z,97188.63
2023-05-15T03:48:02.763Z,97187.97
2023-05-15T03:50:31.362Z,97194.56
2023-05-15T03:53:00.276Z,97182.78
2023-05-15T03:55:27.989Z,97187.09
2023-05-15T03:57:55.594Z,97193.28
2023-05-15T04:00:23.837Z,97186.06
2023-05-15T04:02:51.630Z,97194.28
2023-05-15T04:05:19.816Z,97188.50
2023-05-15T04:07:47.781Z,97194.09
2023-05-15T04:10:15.355Z,97193.88
2023-05-15T04:12:42.831Z,97195.72
2023-05-15T04:15:21.806Z,97205.03
2023-05-15T04:17:53.556Z,97208.75
2023-05-15T04:20:24.234Z,97202.69
2023-05-15T04:22:52.678Z,97201.50
2023-05-15T04:25:20.544Z,97202.94
2023-05-15T04:27:49.169Z,97198.81
2023-05-15T04:30:16.949Z,97198.22
2023-05-15T04:32:44.553Z,97197.03
2023-05-15T04:35:13.423Z,97204.88
2023-05-15T04:37:42.750Z,97199.94
2023-05-15T04:40:10.750Z,97195.41
2023-05-15T04:42:39.505Z,97199.13
2023-05-15T04:45:09.091Z,97200.09
2023-05-15T04:47:37.368Z,97198.84
2023-05-15T04:50:05.440Z,97197.66
2023-05-15T04:52:33.262Z,97191.28
2023-05-15T04:55:00.927Z,97202.19
2023-05-15T04:57:28.426Z,97204.06
2023-05-15T04:59:56.052Z,97200.78
2023-05-15T05:02:24.372Z,97199.97
2023-05-15T05:04:51.959Z,97192.31
2023-05-15T05:07:19.512Z,97197.09
2023-05-15T05:09:47.086Z,97192.53
2023-05-15T05:12:14.664Z,97198.50
2023-05-15T05:14:44.515Z,97199.34
2023-05-15T05:17:12.108Z,97201.44
2023-05-15T05:19:39.681Z,97204.06
2023-05-15T05:22:07.577Z,97204.25
2023-05-15T05:24:37.239Z,97203.19
2023-05-15T05:27:05.443Z,97202.38
2023-05-15T05:29:33.273Z,97197.91
2023-05-15T05:32:01.218Z,97213.00
2023-05-15T05:34:29.031Z,97212.97
2023-05-15T05:36:56.519Z,97216.47
2023-05-15T05:39:24.042Z,97218.69
2023-05-15T05:41:51.607Z,97216.66
2023-05-15T05:44:19.182Z,97215.25
2023-05-15T05:46:46.849Z,97220.94
2023-05-15T05:49:14.320Z,97216.78
2023-05-15T05:51:41.874Z,97214.94
2023-05-15T05:54:09.415Z,97221.53
2023-05-15T05:56:36.970Z,97220.09
2023-05-15T05:59:06.338Z,97220.78
2023-05-15T06:01:34.058Z,97221.41
2023-05-15T06:04:02.055Z,97215.66
2023-05-15T06:06:29.898Z,97218.09
2023-05-15T06:08:57.394Z,97219.41
2023-05-15T06:11:25.665Z,97213.84
2023-05-15T06:13:53.281Z,97216.75
2023-05-15T06:16:21.493Z,97219.25
2023-05-15T06:18:49.035Z,97224.63
2023-05-15T06:21:16.562Z,97222.56
2023-05-15T06:23:44.180Z,97226.94
2023-05-15T06:26:11.737Z,97216.25
2023-05-15T06:28:39.244Z,97217.28
2023-05-15T06:31:06.803Z,97219.47
2023-05-15T06:33:34.315Z,97221.16
2023-05-15T06:36:02.233Z,97225.13
2023-05-15T06:38:29.843Z,97220.16
2023-05-15T06:40:57.318Z,97235.25
2023-05-15T06:43:24.812Z,97223.25
2023-05-15T06:45:52.344Z,97226.78
2023-05-15T06:48:20.010Z,97230.91
2023-05-15T06:50:48.182Z,97230.69
2023-05-15T06:53:17.488Z,97234.03
2023-05-15T06:55:44.988Z,97230.31
2023-05-15T06:58:12.661Z,97230.09
2023-05-15T07:00:40.266Z,97235.25
2023-05-15T07:03:08.038Z,97230.94
2023-05-15T07:05:35.665Z,97232.16
2023-05-15T07:08:03.189Z,97234.63
2023-05-15T07:10:30.697Z,97230.50
2023-05-15T07:12:58.215Z,97226.38
2023-05-15T07:15:25.768Z,97227.81
2023-05-15T07:17:53.330Z,97229.69
2023-05-15T07:20:20.992Z,97233.41
2023-05-15T07:22:56.272Z,97228.44
2023-05-15T07:25:25.837Z,97219.38
2023-05-15T07:27:53.690Z,97228.63
2023-05-15T07:30:21.362Z,97222.06
2023-05-15T07:32:49.113Z,97223.66
2023-05-15T07:35:16.924Z,97230.88
2023-05-15T07:37:44.498Z,97229.41
2023-05-15T07:40:12.417Z,97236.06
2023-05-15T07:42:39.901Z,97224.03
2023-05-15T07:45:09.281Z,97222.94
2023-05-15T07:47:36.842Z,97229.56
2023-05-15T07:50:04.797Z,97235.78
2023-05-15T07:52:32.304Z,97235.13
2023-05-15T07:54:59.813Z,97231.66
2023-05-15T07:57:27.861Z,97226.88
2023-05-15T07:59:55.949Z,97228.06
2023-05-15T08:02:23.682Z,97227.34
2023-05-15T08:04:51.987Z,97217.00
2023-05-15T08:07:19.502Z,97218.19
2023-05-15T08:09:46.963Z,97220.28
2023-05-15T08:12:22.012Z,97220.13
2023-05-15T08:14:55.163Z,97228.38
2023-05-15T08:17:24.432Z,97218.53
2023-05-15T08:19:52.886Z,97229.13
2023-05-15T08:22:20.420Z,97218.81
2023-05-15T08:24:48.902Z,97225.81
2023-05-15T08:27:16.404Z,97228.28
2023-05-15T08:29:44.070Z,97226.63
2023-05-15T08:32:11.649Z,97227.34
2023-05-15T08:34:39.252Z,97232.41
2023-05-15T08:37:07.109Z,97232.81
2023-05-15T08:39:34.749Z,97230.75
2023-05-15T08:42:20.881Z,97230.44
2023-05-15T08:44:48.585Z,97233.72
2023-05-15T08:47:16.363Z,97238.22
2023-05-15T08:50:07.522Z,97230.31
2023-05-15T08:52:35.617Z,97225.81
2023-05-15T08:55:04.497Z,97231.59
2023-05-15T08:57:33.798Z,97228.06
2023-05-15T09:00:02.690Z,97214.94
2023-05-15T09:02:30.199Z,97220.56
2023-05-15T09:04:57.994Z,97216.88
2023-05-15T09:07:25.784Z,97213.94
2023-05-15T09:09:54.437Z,97220.06
2023-05-15T09:12:25.323Z,97218.22
2023-05-15T09:15:12.126Z,97214.47
2023-05-15T09:17:40.348Z,97208.47
2023-05-15T09:20:24.041Z,97203.16
2023-05-15T09:22:51.551Z,97207.88
2023-05-15T09:25:44.401Z,97202.56
2023-05-15T09:28:32.010Z,97205.56
2023-05-15T09:31:05.517Z,97198.34
2023-05-15T09:33:37.736Z,97206.75
2023-05-15T09:36:07.425Z,97203.97
2023-05-15T09:38:43.577Z,97198.31
2023-05-15T09:41:11.475Z,97204.38
2023-05-15T09:43:41.093Z,97199.00
2023-05-15T09:46:09.475Z,97200.78
2023-05-15T09:48:37.209Z,97202.16
2023-05-15T09:51:14.205Z,97195.72
2023-05-15T09:53:41.828Z,97189.50
2023-05-15T09:56:10.479Z,97189.34
2023-05-15T09:58:38.025Z,97184.03
2023-05-15T10:01:11.537Z,97181.00
2023-05-15T10:03:43.610Z,97180.91
2023-05-15T10:06:18.948Z,97191.88
2023-05-15T10:08:57.678Z,97177.16
2023-05-15T10:11:25.612Z,97173.44
2023-05-15T10:13:53.104Z,97170.72
2023-05-15T10:16:22.463Z,97173.75
2023-05-15T10:18:52.474Z,97167.81
2023-05-15T10:21:22.984Z,97161.06
2023-05-15T10:23:50.881Z,97156.13
2023-05-15T10:26:24.570Z,97163.22
2023-05-15T10:28:52.950Z,97160.31
2023-05-15T10:31:20.701Z,97149.88
2023-05-15T10:33:48.831Z,97146.66
2023-05-15T10:36:17.467Z,97142.13
2023-05-15T10:38:46.785Z,97144.88
2023-05-15T10:41:20.866Z,97140.47
2023-05-15T10:43:49.583Z,97137.41
2023-05-15T10:46:17.487Z,97118.06
2023-05-15T10:48:45.338Z,97126.28
2023-05-15T10:51:26.575Z,97118.53
2023-05-15T10:53:56.112Z,97113.59
2023-05-15T10:56:31.367Z,97112.44
2023-05-15T10:59:05.290Z,97104.78
2023-05-15T11:01:35.456Z,97108.63
2023-05-15T11:04:19.407Z,97118.88
2023-05-15T11:06:48.330Z,97110.72
2023-05-15T11:09:21.931Z,97112.41
2023-05-15T11:11:52.877Z,97118.63
2023-05-15T11:14:20.495Z,97106.06
2023-05-15T11:16:54.284Z,97101.59
2023-05-15T11:19:23.187Z,97103.66
2023-05-15T11:22:16.013Z,97105.47
2023-05-15T11:24:51.937Z,97097.69
2023-05-15T11:27:23.335Z,97090.38
2023-05-15T11:30:08.568Z,97097.91
2023-05-15T11:32:43.902Z,97102.41
2023-05-15T11:35:14.048Z,97091.13
2023-05-15T11:37:51.882Z,97092.25
2023-05-15T11:40:26.061Z,97089.56
2023-05-15T11:43:32.665Z,97087.44
2023-05-15T11:46:03.293Z,97088.09
2023-05-15T11:48:37.463Z,97080.84
2023-05-15T11:51:06.025Z,97091.09
2023-05-15T11:53:34.005Z,97085.06
2023-05-15T11:56:01.946Z,97082.19
2023-05-15T11:58:29.596Z,97082.53
2023-05-15T12:00:58.128Z,97074.66
2023-05-15T12:03:32.436Z,97074.44
2023-05-15T12:06:02.726Z,97079.31
2023-05-15T12:08:36.025Z,97076.72
2023-05-15T12:11:04.793Z,97061.75
2023-05-15T12:13:34.001Z,97075.53
2023-05-15T12:16:05.268Z,97075.75
2023-05-15T12:18:33.710Z,97079.38
2023-05-15T12:21:01.591Z,97076.31
2023-05-15T12:23:29.269Z,97075.72
2023-05-15T12:26:01.397Z,97076.50
2023-05-15T12:28:30.594Z,97070.97
2023-05-15T12:30:59.210Z,97055.47
2023-05-15T12:33:27.036Z,97062.84
2023-05-15T12:35:59.961Z,97064.28
2023-05-15T12:38:29.009Z,97068.75
2023-05-15T12:40:57.093Z,97071.59
2023-05-15T12:43:26.009Z,97060.06
2023-05-15T12:45:55.797Z,97061.34
2023-05-15T12:48:28.836Z,97066.09
2023-05-15T12:51:03.849Z,97067.38
2023-05-15T12:53:34.313Z,97067.72
2023-05-15T12:56:02.365Z,97067.84
2023-05-15T12:58:30.096Z,97068.09
2023-05-15T13:00:58.666Z,97066.34
2023-05-15T13:03:27.846Z,97072.50
2023-05-15T13:05:55.798Z,97065.06
2023-05-15T13:08:23.398Z,97077.44
2023-05-15T13:10:59.115Z,97076.19
2023-05-15T13:13:50.151Z,97076.38
2023-05-15T13:16:23.745Z,97067.13
2023-05-15T13:18:51.736Z,97068.09
2023-05-15T13:21:19.625Z,97060.56
2023-05-15T13:23:47.253Z,97062.25
2023-05-15T13:26:14.955Z,97061.94
2023-05-15T13:28:42.535Z,97057.75
2023-05-15T13:31:10.162Z,97058.31
2023-05-15T13:33:37.721Z,97057.41
2023-05-15T13:36:05.784Z,97065.22
2023-05-15T13:38:33.421Z,97065.31
2023-05-15T13:41:01.056Z,97061.00
2023-05-15T13:43:28.618Z,97056.91
2023-05-15T13:45:56.206Z,97045.03
2023-05-15T13:48:23.727Z,97050.78
2023-05-15T13:50:51.286Z,97044.47
2023-05-15T13:53:18.829Z,97029.91
2023-05-15T13:55:46.981Z,97024.13
2023-05-15T13:58:14.712Z,97034.59
2023-05-15T14:00:44.154Z,97036.81
2023-05-15T14:03:14.932Z,97045.00
2023-05-15T14:05:43.032Z,97052.03
2023-05-15T14:08:10.938Z,97054.75
2023-05-15T14:10:38.486Z,97048.97
2023-05-15T14:13:06.347Z,97058.16
2023-05-15T14:15:33.842Z,97053.34
2023-05-15T14:18:01.383Z,97066.34
2023-05-15T14:20:29.008Z,97060.34
2023-05-15T14:22:56.676Z,97063.97
2023-05-15T14:25:24.412Z,97068.28
2023-05-15T14:27:52.319Z,97060.59
2023-05-15T14:30:21.874Z,97065.75
2023-05-15T14:32:49.443Z,97066.41
2023-05-15T14:35:16.964Z,97071.09
2023-05-15T14:37:45.151Z,97070.59
2023-05-15T14:40:13.245Z,97093.72
2023-05-15T14:42:40.860Z,97098.72
2023-05-15T14:45:09.160Z,97103.81
2023-05-15T14:47:36.683Z,97100.94
2023-05-15T14:50:04.883Z,97101.56
2023-05-15T14:52:32.454Z,97118.47
2023-05-15T14:55:09.166Z,97118.63
2023-05-15T14:57:38.489Z,97125.06
2023-05-15T15:00:08.024Z,97127.59
2023-05-15T15:02:35.797Z,97126.41
2023-05-15T15:05:04.422Z,97131.47
2023-05-15T15:07:51.900Z,97133.31
2023-05-15T15:10:19.431Z,97137.38
2023-05-15T15:12:46.938Z,97141.16
2023-05-15T15:15:14.436Z,97149.53
2023-05-15T15:17:41.944Z,97157.38
2023-05-15T15:20:11.564Z,97155.75
2023-05-15T15:22:42.177Z,97161.75
2023-05-15T15:25:10.014Z,97160.47
2023-05-15T15:27:37.676Z,97155.78
2023-05-15T15:30:07.229Z,97141.41
2023-05-15T15:32:36.194Z,97140.13
2023-05-15T15:35:07.226Z,97144.81
2023-05-15T15:37:35.985Z,97148.31
2023-05-15T15:40:06.137Z,97148.59
2023-05-15T15:42:34.678Z,97170.91
2023-05-15T15:45:02.904Z,97191.81
2023-05-15T15:47:31.789Z,97180.94
2023-05-15T15:49:59.724Z,97180.03
2023-05-15T15:52:27.835Z,97186.78
2023-05-15T15:54:55.347Z,97191.16
2023-05-15T15:57:23.166Z,97182.44
2023-05-15T15:59:50.728Z,97167.75
2023-05-15T16:02:18.261Z,97166.91
2023-05-15T16:04:45.761Z,97174.91
2023-05-15T16:07:13.267Z,97185.69
2023-05-15T16:09:40.806Z,97167.41
2023-05-15T16:12:08.549Z,97155.81
2023-05-15T16:14:36.102Z,97162.91
2023-05-15T16:17:04.157Z,97160.88
2023-05-15T16:19:32.758Z,97166.56
2023-05-15T16:22:00.349Z,97157.28
2023-05-15T16:24:27.964Z,97153.25
2023-05-15T16:26:56.471Z,97150.84
2023-05-15T16:29:23.991Z,97150.72
2023-05-15T16:31:52.314Z,97155.81
2023-05-15T16:34:20.711Z,97151.69
2023-05-15T16:36:48.299Z,97152.97
2023-05-15T16:39:15.984Z,97153.06
2023-05-15T16:41:43.617Z,97144.75
2023-05-15T16:44:11.317Z,97150.50
2023-05-15T16:46:38.972Z,97139.66
2023-05-15T16:49:07.186Z,97146.69
2023-05-15T16:51:34.757Z,97143.44
2023-05-15T16:54:02.988Z,97152.13
2023-05-15T16:56:30.569Z,97156.63
2023-05-15T16:58:58.057Z,97151.97
2023-05-15T17:01:25.702Z,97158.09
2023-05-15T17:03:53.596Z,97156.00
2023-05-15T17:06:21.425Z,97158.41
2023-05-15T17:08:48.967Z,97163.34
2023-05-15T17:11:16.537Z,97157.94
2023-05-15T17:13:44.909Z,97165.41
2023-05-15T17:16:12.490Z,97174.41
2023-05-15T17:18:40.123Z,97177.19
2023-05-15T17:21:07.685Z,97177.72
2023-05-15T17:23:35.799Z,97182.09
2023-05-15T17:26:04.167Z,97175.53
2023-05-15T17:28:31.676Z,97183.28
2023-05-15T17:30:59.708Z,97181.66
2023-05-15T17:33:27.247Z,97183.28
2023-05-15T17:35:54.837Z,97195.34
2023-05-15T17:38:22.324Z,97207.94
2023-05-15T17:40:49.830Z,97204.06
2023-05-15T17:43:17.630Z,97205.56
2023-05-15T17:45:45.725Z,97210.97
2023-05-15T17:48:13.345Z,97215.25
2023-05-15T17:50:41.997Z,97212.75
2023-05-15T17:53:09.516Z,97214.44
2023-05-15T17:55:37.176Z,97212.34
2023-05-15T17:58:04.744Z,97212.38
2023-05-15T18:00:32.255Z,97220.91
2023-05-15T18:03:01.062Z,97218.97
2023-05-15T18:05:28.870Z,97223.66
2023-05-15T18:07:59.373Z,97221.44
2023-05-15T18:10:26.865Z,97215.09
2023-05-15T18:12:54.331Z,97219.88
2023-05-15T18:15:21.851Z,97218.66
2023-05-15T18:17:49.810Z,97216.56
2023-05-15T18:20:17.644Z,97224.22
2023-05-15T18:22:45.950Z,97217.44
2023-05-15T18:25:13.481Z,97220.69
2023-05-15T18:27:41.192Z,97229.09
2023-05-15T18:30:09.463Z,97234.06
2023-05-15T18:32:37.195Z,97230.31
2023-05-15T18:35:05.101Z,97234.75
2023-05-15T18:37:32.806Z,97227.88
2023-05-15T18:40:00.495Z,97231.97
2023-05-15T18:42:28.924Z,97237.81
2023-05-15T18:44:56.424Z,97230.75
2023-05-15T18:47:24.035Z,97222.63
2023-05-15T18:49:51.963Z,97230.25
2023-05-15T18:52:19.990Z,97227.75
2023-05-15T18:54:48.141Z,97222.53
2023-05-15T18:57:15.682Z,97225.47
2023-05-15T18:59:44.356Z,97225.00
2023-05-15T19:02:13.205Z,97228.16
2023-05-15T19:04:40.736Z,97234.59
2023-05-15T19:07:08.250Z,97230.03
2023-05-15T19:09:35.848Z,97239.53
2023-05-15T19:12:03.421Z,97235.41
2023-05-15T19:14:32.048Z,97246.38
2023-05-15T19:16:59.914Z,97249.69
2023-05-15T19:19:27.555Z,97247.19
2023-05-15T19:21:55.040Z,97244.75
2023-05-15T19:24:22.742Z,97244.75
2023-05-15T19:26:50.250Z,97253.50
2023-05-15T19:29:17.815Z,97257.41
2023-05-15T19:31:45.605Z,97257.19
2023-05-15T19:34:13.567Z,97267.34
2023-05-15T19:36:41.620Z,97262.00
2023-05-15T19:39:09.093Z,97262.41
2023-05-15T19:41:36.627Z,97259.31
2023-05-15T19:44:04.867Z,97264.91
2023-05-15T19:46:32.504Z,97263.47
2023-05-15T19:48:59.991Z,97268.25
2023-05-15T19:51:27.579Z,97271.13
2023-05-15T19:53:56.517Z,97279.41
2023-05-15T19:56:25.253Z,97279.00
2023-05-15T19:58:52.921Z,97285.63
2023-05-15T20:01:20.418Z,97277.56
2023-05-15T20:03:48.002Z,97283.56
2023-05-15T20:06:15.709Z,97288.53
2023-05-15T20:08:43.294Z,97290.16
2023-05-15T20:11:11.103Z,97291.63
2023-05-15T20:13:39.145Z,97286.03
2023-05-15T20:16:10.300Z,97280.88
2023-05-15T20:18:39.557Z,97285.22
2023-05-15T20:21:07.158Z,97283.97
2023-05-15T20:23:34.744Z,97286.03
2023-05-15T20:26:03.238Z,97278.41
2023-05-15T20:28:30.731Z,97289.97
2023-05-15T20:30:59.749Z,97291.44
2023-05-15T20:33:27.510Z,97286.69
2023-05-15T20:35:55.168Z,97291.63
2023-05-15T20:38:25.237Z,97295.75
2023-05-15T20:40:52.953Z,97291.84
2023-05-15T20:43:20.762Z,97296.41
2023-05-15T20:45:48.295Z,97301.16
2023-05-15T20:48:16.037Z,97298.47
2023-05-15T20:50:43.531Z,97310.25
2023-05-15T20:53:11.214Z,97302.63
2023-05-15T20:55:38.848Z,97307.34
2023-05-15T20:58:06.346Z,97308.59
2023-05-15T21:00:33.903Z,97303.22
2023-05-15T21:03:01.596Z,97310.06
2023-05-15T21:05:29.183Z,97309.44
2023-05-15T21:07:57.228Z,97309.03
2023-05-15T21:10:24.935Z,97306.72
2023-05-15T21:12:52.591Z,97301.16
2023-05-15T21:15:20.111Z,97301.75
2023-05-15T21:17:47.665Z,97300.75
2023-05-15T21:20:15.307Z,97290.81
2023-05-15T21:22:42.851Z,97292.88
2023-05-15T21:25:11.119Z,97286.28
2023-05-15T21:27:38.660Z,97289.78
2023-05-15T21:30:07.100Z,97294.34
2023-05-15T21:32:34.591Z,97290.84
2023-05-15T21:35:02.112Z,97287.53
2023-05-15T21:37:29.611Z,97298.28
2023-05-15T21:39:57.222Z,97298.50
2023-05-15T21:42:24.701Z,97307.16
2023-05-15T21:44:52.199Z,97303.44
2023-05-15T21:47:19.741Z,97304.28
2023-05-15T21:49:47.368Z,97299.72
2023-05-15T21:52:14.852Z,97304.28
2023-05-15T21:54:43.826Z,97303.25
2023-05-15T21:57:11.392Z,97302.00
2023-05-15T21:59:38.875Z,97294.16
2023-05-15T22:02:07.384Z,97301.19
2023-05-15T22:04:35.150Z,97293.75
2023-05-15T22:07:02.679Z,97298.50
2023-05-15T22:09:30.193Z,97302.19
2023-05-15T22:11:57.677Z,97302.81
2023-05-15T22:14:25.325Z,97306.75
2023-05-15T22:16:52.912Z,97303.66
2023-05-15T22:19:32.595Z,97304.03
2023-05-15T22:22:03.293Z,97307.34
2023-05-15T22:24:30.782Z,97296.81
2023-05-15T22:26:58.320Z,97310.88
2023-05-15T22:29:26.565Z,97308.38
2023-05-15T22:31:54.185Z,97306.91
2023-05-15T22:34:21.769Z,97307.53
2023-05-15T22:36:49.251Z,97308.59
2023-05-15T22:39:16.782Z,97311.03
2023-05-15T22:41:44.310Z,97306.91
2023-05-15T22:44:11.971Z,97311.25
2023-05-15T22:46:39.912Z,97312.88
2023-05-15T22:49:12.354Z,97312.50
2023-05-15T22:51:39.857Z,97311.44
2023-05-15T22:54:07.947Z,97303.34
2023-05-15T22:56:35.430Z,97311.44
2023-05-15T22:59:02.914Z,97305.69
2023-05-15T23:01:31.461Z,97301.94
2023-05-15T23:03:59.058Z,97303.41
2023-05-15T23:06:26.578Z,97299.50
2023-05-15T23:08:54.064Z,97299.50
2023-05-15T23:11:21.903Z,97302.16
2023-05-15T23:13:49.399Z,97303.63
2023-05-15T23:16:17.009Z,97302.16
2023-05-15T23:18:44.610Z,97310.66
2023-05-15T23:21:12.250Z,97298.66
2023-05-15T23:23:40.066Z,97309.00
2023-05-15T23:26:07.798Z,97305.91
2023-05-15T23:28:35.270Z,97304.44
2023-05-15T23:31:02.822Z,97307.34
2023-05-15T23:33:30.539Z,97304.22
2023-05-15T23:35:58.041Z,97303.59
2023-05-15T23:38:26.281Z,97305.66
2023-05-15T23:40:53.967Z,97299.03
2023-05-15T23:43:21.577Z,97301.53
2023-05-15T23:45:49.106Z,97302.72
2023-05-15T23:48:16.678Z,97298.97
2023-05-15T23:50:45.116Z,97303.50
2023-05-15T23:53:12.659Z,97302.88
2023-05-15T23:55:40.273Z,97304.72
2023-05-15T23:58:07.812Z,97300.34
